Terminal Aerodrome Forecast
Issued by NWS Goodland, KS

Home | Current Version | Previous Version | Text Only | Print | Product List | Glossary On
Versions: 1 2 3 4 5 6 7 8 9 10 11 12 13 14 15
072
FTUS43 KGLD 160536
TAFGLD
TAF
KGLD 160536Z 1606/1706 34013G20KT P6SM VCTS SCT080CB WS020/17030KT
     FM160700 33010KT P6SM SCT060 OVC130
     FM161100 34009KT P6SM BKN015
     FM161500 34008KT P6SM SCT015
     FM161700 35017KT P6SM SCT040 BKN080
     FM170000 35007KT P6SM FEW045 SCT120=

USA.gov is the U.S. government's official web portal to all federal, state and local government web resources and services.